Time;durP1;ratioP1;P1;durP2;ratioP2;P2;SDS_P1;SDS_P2;PMS_P1;PMS_P2;Temp;Humidity;BMP_temperature;BMP_pressure;BME280_temperature;BME280_humidity;BME280_pressure;Samples;Min_cycle;Max_cycle;Signal;HPM_P1;HPM_P2
2022/04/09 00:00:55;;;;;;;1.67;0.80;;;8.80;45.00;;;;;;4890132;29;20041;-84
2022/04/09 00:03:21;;;;;;;1.67;0.88;;;8.80;45.00;;;;;;4909329;29;20344;-87
2022/04/09 00:05:47;;;;;;;2.75;1.00;;;8.80;45.00;;;;;;4904649;29;20467;-87
2022/04/09 00:08:14;;;;;;;1.48;0.77;;;8.80;45.10;;;;;;4893880;29;20064;-87
2022/04/09 00:10:40;;;;;;;0.93;0.80;;;8.70;45.00;;;;;;4894840;29;20436;-87
2022/04/09 00:13:06;;;;;;;1.05;0.80;;;8.70;45.00;;;;;;4892954;29;20086;-86
2022/04/09 00:15:32;;;;;;;2.65;1.20;;;8.70;45.00;;;;;;4910928;29;20051;-86
2022/04/09 00:17:58;;;;;;;2.47;1.08;;;8.70;45.00;;;;;;4894679;29;20043;-86
2022/04/09 00:20:24;;;;;;;2.70;0.90;;;8.70;45.10;;;;;;4911709;29;20071;-87
2022/04/09 00:22:50;;;;;;;2.95;1.27;;;8.60;44.90;;;;;;4912225;29;20043;-86
2022/04/09 00:25:23;;;;;;;2.33;0.80;;;8.60;45.00;;;;;;4893311;29;20028;-86
2022/04/09 00:27:53;;;;;;;1.35;0.90;;;8.60;45.00;;;;;;4910711;29;20039;-89
2022/04/09 00:30:20;;;;;;;1.13;0.60;;;8.60;45.00;;;;;;4910936;29;20194;-88
2022/04/09 00:32:46;;;;;;;2.15;0.77;;;8.60;45.00;;;;;;4932543;29;20031;-88
2022/04/09 00:35:12;;;;;;;1.42;1.30;;;8.60;45.00;;;;;;4917925;29;20021;-86
2022/04/09 00:37:46;;;;;;;3.25;1.00;;;8.50;44.90;;;;;;4902302;29;20041;-86
2022/04/09 00:40:14;;;;;;;2.10;1.52;;;8.50;45.00;;;;;;4938085;29;20048;-87
2022/04/09 00:42:43;;;;;;;2.10;0.70;;;8.50;45.50;;;;;;4917310;29;20028;-88
2022/04/09 00:45:13;;;;;;;2.15;0.85;;;8.50;45.00;;;;;;4933682;29;20047;-84
2022/04/09 00:47:39;;;;;;;1.38;0.60;;;8.40;44.90;;;;;;4932840;29;20044;-85
2022/04/09 00:50:08;;;;;;;2.28;1.08;;;8.40;44.90;;;;;;4904620;29;20052;-85
2022/04/09 00:52:38;;;;;;;2.42;0.88;;;8.40;45.10;;;;;;4898342;29;20495;-85
2022/04/09 00:55:05;;;;;;;1.70;0.90;;;8.30;44.90;;;;;;4910462;29;20051;-85
2022/04/09 00:57:35;;;;;;;2.20;0.82;;;8.30;45.00;;;;;;4886001;29;20028;-85
2022/04/09 01:00:09;;;;;;;1.60;0.60;;;8.30;45.10;;;;;;4889436;29;20032;-85
2022/04/09 01:02:40;;;;;;;1.45;0.65;;;8.20;45.00;;;;;;4908950;29;20060;-85
2022/04/09 01:05:07;;;;;;;1.23;0.63;;;8.20;45.10;;;;;;4891887;29;20036;-85
2022/04/09 01:07:34;;;;;;;2.65;0.90;;;8.20;45.10;;;;;;4909500;29;20112;-85
2022/04/09 01:10:01;;;;;;;2.13;0.98;;;8.10;45.00;;;;;;4907460;29;20598;-85
2022/04/09 01:12:27;;;;;;;1.45;0.70;;;8.10;45.00;;;;;;4892357;29;20024;-88
2022/04/09 01:14:53;;;;;;;1.25;0.70;;;8.10;45.10;;;;;;4892482;29;20049;-89
2022/04/09 01:17:19;;;;;;;1.27;0.52;;;8.10;45.20;;;;;;4887710;29;20036;-89
2022/04/09 01:19:46;;;;;;;4.25;1.00;;;8.10;45.20;;;;;;4883817;29;20032;-91
2022/04/09 01:22:12;;;;;;;2.83;0.80;;;8.00;45.10;;;;;;4895574;29;20051;-92
2022/04/09 01:24:37;;;;;;;2.33;0.80;;;8.00;45.10;;;;;;4893248;29;20512;-92
2022/04/09 01:27:05;;;;;;;2.42;0.80;;;8.00;45.20;;;;;;4878844;29;20555;-91
2022/04/09 01:29:35;;;;;;;3.42;0.65;;;7.90;45.00;;;;;;4900763;29;20039;-89
2022/04/09 01:32:01;;;;;;;5.65;0.70;;;7.90;45.10;;;;;;4892702;29;20039;-89
2022/04/09 01:34:27;;;;;;;3.42;1.05;;;7.90;45.10;;;;;;4880053;29;20418;-89
2022/04/09 01:36:53;;;;;;;2.00;0.65;;;7.80;45.00;;;;;;4893713;29;20037;-89
2022/04/09 01:39:20;;;;;;;1.45;0.80;;;7.80;45.00;;;;;;4893217;29;20087;-90
2022/04/09 01:41:46;;;;;;;2.28;0.68;;;7.80;45.00;;;;;;4894390;29;20048;-86
2022/04/09 01:44:12;;;;;;;5.63;1.23;;;7.80;45.10;;;;;;4905773;29;20055;-87
2022/04/09 01:46:44;;;;;;;2.70;0.88;;;7.80;45.10;;;;;;4895952;29;20038;-86
2022/04/09 01:49:11;;;;;;;1.63;1.17;;;7.80;45.10;;;;;;4912218;29;20076;-86
2022/04/09 01:51:37;;;;;;;2.63;0.73;;;7.80;45.20;;;;;;4897739;29;20274;-86
2022/04/09 01:54:04;;;;;;;1.92;0.75;;;7.70;45.10;;;;;;4892966;29;20031;-86
2022/04/09 01:56:29;;;;;;;2.00;0.73;;;7.70;45.10;;;;;;4895156;29;20040;-88
2022/04/09 01:58:56;;;;;;;2.15;1.00;;;7.70;45.20;;;;;;4897094;29;20036;-86
2022/04/09 02:01:24;;;;;;;1.10;0.70;;;7.60;45.10;;;;;;4896694;29;20128;-84
2022/04/09 02:03:50;;;;;;;1.92;0.73;;;7.60;45.10;;;;;;4896862;29;20036;-84
2022/04/09 02:06:16;;;;;;;1.83;0.68;;;7.60;45.20;;;;;;4912844;29;20070;-84
2022/04/09 02:08:42;;;;;;;1.63;0.70;;;7.60;45.30;;;;;;4904050;29;20028;-84
2022/04/09 02:11:08;;;;;;;1.73;0.82;;;7.50;45.10;;;;;;4897693;29;20137;-84
2022/04/09 02:13:35;;;;;;;2.08;0.80;;;7.50;45.20;;;;;;4892981;29;20040;-85
2022/04/09 02:16:00;;;;;;;1.67;0.77;;;7.50;45.30;;;;;;4894040;29;20050;-85
2022/04/09 02:18:29;;;;;;;1.23;0.88;;;7.40;45.10;;;;;;4881660;29;20253;-85
2022/04/09 02:20:56;;;;;;;1.90;0.75;;;7.40;45.20;;;;;;4895275;29;20131;-86
2022/04/09 02:23:21;;;;;;;1.58;0.60;;;7.40;45.20;;;;;;4882483;29;20106;-87
2022/04/09 02:25:47;;;;;;;2.00;0.70;;;7.30;45.10;;;;;;4898459;29;20039;-87
2022/04/09 02:28:13;;;;;;;3.17;0.90;;;7.30;45.20;;;;;;4915539;29;20108;-91
2022/04/09 02:30:39;;;;;;;1.73;0.70;;;7.30;45.20;;;;;;4887221;29;20051;-85
2022/04/09 02:33:08;;;;;;;1.17;0.80;;;7.20;45.10;;;;;;4891886;29;20031;-84
2022/04/09 02:35:39;;;;;;;3.15;1.00;;;7.20;45.20;;;;;;4895179;29;20036;-84
2022/04/09 02:38:09;;;;;;;3.50;0.88;;;7.20;45.30;;;;;;4889517;29;20615;-85
2022/04/09 02:40:36;;;;;;;0.95;0.70;;;7.10;45.10;;;;;;4901292;29;20126;-85
2022/04/09 02:43:02;;;;;;;1.95;0.63;;;7.10;45.20;;;;;;4896019;29;20071;-85
2022/04/09 02:45:29;;;;;;;2.40;0.70;;;7.10;45.30;;;;;;4896936;29;20563;-85
2022/04/09 02:47:55;;;;;;;2.13;0.60;;;7.00;45.10;;;;;;4895410;29;20119;-83
2022/04/09 02:50:25;;;;;;;2.17;0.73;;;7.00;45.10;;;;;;4880935;29;20446;-84
2022/04/09 02:52:52;;;;;;;1.30;0.68;;;6.90;45.00;;;;;;4892562;29;20064;-85
2022/04/09 02:55:19;;;;;;;1.48;0.52;;;6.90;45.10;;;;;;4905963;29;20036;-88
2022/04/09 02:57:46;;;;;;;3.00;0.90;;;6.90;45.20;;;;;;4882594;29;20138;-90
2022/04/09 03:00:16;;;;;;;0.60;0.60;;;6.80;45.00;;;;;;4880587;29;20044;-86
2022/04/09 03:02:44;;;;;;;1.58;0.80;;;6.80;45.10;;;;;;4906974;29;20059;-86
2022/04/09 03:05:22;;;;;;;1.75;0.82;;;6.70;45.00;;;;;;4897227;29;20377;-86
2022/04/09 03:07:48;;;;;;;1.70;0.82;;;6.70;45.10;;;;;;4916540;29;20039;-88
2022/04/09 03:10:14;;;;;;;1.33;0.80;;;6.60;45.00;;;;;;4890227;29;20024;-90
2022/04/09 03:12:47;;;;;;;3.00;0.70;;;6.60;45.60;;;;;;4913267;29;20163;-86
2022/04/09 03:15:16;;;;;;;2.10;1.25;;;6.60;45.10;;;;;;4896136;29;20031;-86
2022/04/09 03:17:42;;;;;;;2.58;0.60;;;6.50;45.00;;;;;;4899988;29;20575;-86
2022/04/09 03:20:10;;;;;;;1.58;0.85;;;6.50;45.00;;;;;;4896562;29;20036;-86
2022/04/09 03:22:42;;;;;;;1.17;0.80;;;6.40;44.90;;;;;;4894559;29;20035;-86
2022/04/09 03:25:09;;;;;;;2.97;0.90;;;6.40;45.00;;;;;;4892451;29;20089;-86
2022/04/09 03:27:35;;;;;;;1.98;0.77;;;6.30;44.90;;;;;;4895171;29;20040;-86
2022/04/09 03:30:02;;;;;;;2.00;0.73;;;6.30;44.90;;;;;;4878172;29;20036;-86
2022/04/09 03:32:32;;;;;;;2.28;0.90;;;6.20;44.80;;;;;;4894772;29;20378;-86
2022/04/09 03:35:00;;;;;;;3.83;0.98;;;6.20;44.80;;;;;;4904671;29;20142;-87
2022/04/09 03:37:28;;;;;;;6.05;1.05;;;6.20;44.90;;;;;;4885928;29;20057;-87
2022/04/09 03:39:54;;;;;;;2.90;0.70;;;6.20;44.90;;;;;;4881341;29;20028;-87
2022/04/09 03:42:20;;;;;;;2.92;0.80;;;6.10;44.80;;;;;;4896751;29;20436;-86
2022/04/09 03:44:52;;;;;;;0.77;0.50;;;6.10;44.80;;;;;;4877567;29;20140;-86
2022/04/09 03:47:18;;;;;;;1.90;1.00;;;6.00;44.70;;;;;;4896219;29;20111;-87
2022/04/09 03:49:44;;;;;;;1.42;0.88;;;6.00;44.80;;;;;;4895604;29;20039;-87
2022/04/09 03:52:10;;;;;;;1.58;0.70;;;6.00;44.80;;;;;;4893508;29;20084;-87
2022/04/09 03:54:38;;;;;;;1.58;0.90;;;6.00;44.90;;;;;;4897794;29;20036;-87
2022/04/09 03:57:06;;;;;;;2.45;0.90;;;5.90;44.80;;;;;;4895593;29;20036;-86
2022/04/09 03:59:43;;;;;;;1.58;0.90;;;5.90;45.50;;;;;;4889589;29;20033;-85
2022/04/09 04:02:10;;;;;;;1.77;0.80;;;5.80;44.70;;;;;;4911827;29;20055;-86
2022/04/09 04:04:37;;;;;;;1.63;0.70;;;5.80;44.80;;;;;;4894084;29;20040;-84
2022/04/09 04:07:04;;;;;;;2.25;0.93;;;5.80;44.80;;;;;;4894073;29;20048;-86
2022/04/09 04:09:30;;;;;;;1.15;0.90;;;5.70;44.70;;;;;;4893323;29;20024;-85
2022/04/09 04:11:59;;;;;;;1.42;0.80;;;5.70;44.80;;;;;;4886029;29;20424;-84
2022/04/09 04:14:28;;;;;;;2.25;0.95;;;5.70;45.40;;;;;;4896252;29;20028;-85
2022/04/09 04:16:55;;;;;;;1.13;0.60;;;5.60;44.70;;;;;;4897119;29;20137;-85
2022/04/09 04:19:22;;;;;;;0.98;0.80;;;5.60;44.70;;;;;;4895531;29;20049;-84
2022/04/09 04:21:50;;;;;;;2.25;0.90;;;5.60;44.80;;;;;;4895930;29;20127;-85
2022/04/09 04:24:16;;;;;;;2.65;1.40;;;5.50;44.70;;;;;;4896745;29;20138;-85
2022/04/09 04:26:42;;;;;;;1.20;0.70;;;5.50;44.70;;;;;;4878783;29;20598;-84
2022/04/09 04:29:18;;;;;;;1.23;0.70;;;5.40;44.60;;;;;;4895123;29;20056;-84
2022/04/09 04:31:45;;;;;;;1.05;0.85;;;5.40;44.60;;;;;;4894627;29;20039;-82
2022/04/09 04:34:12;;;;;;;2.80;0.93;;;5.40;44.70;;;;;;4895128;29;20044;-86
2022/04/09 04:36:41;;;;;;;2.90;1.00;;;5.40;44.80;;;;;;4908803;29;20913;-85
2022/04/09 04:39:08;;;;;;;2.50;0.90;;;5.40;44.80;;;;;;4896062;29;20036;-85
2022/04/09 04:41:34;;;;;;;2.55;0.90;;;5.30;44.70;;;;;;4879902;29;20040;-85
2022/04/09 04:44:00;;;;;;;1.05;0.73;;;5.30;44.70;;;;;;4891139;29;20033;-86
2022/04/09 04:46:36;;;;;;;1.30;0.90;;;5.30;44.70;;;;;;4896703;29;20399;-84
2022/04/09 04:49:03;;;;;;;1.30;0.68;;;5.30;44.80;;;;;;4894659;29;20032;-87
2022/04/09 04:51:31;;;;;;;2.92;1.48;;;5.20;44.60;;;;;;4889091;29;20511;-89
2022/04/09 04:53:58;;;;;;;2.13;0.68;;;5.20;44.70;;;;;;4903646;29;20114;-87
2022/04/09 04:56:25;;;;;;;1.55;0.65;;;5.20;44.80;;;;;;4877948;29;20051;-86
2022/04/09 04:58:54;;;;;;;2.20;1.02;;;5.20;44.80;;;;;;4892914;29;20032;-86
2022/04/09 05:01:20;;;;;;;2.13;0.75;;;5.20;45.50;;;;;;4882741;29;20039;-86
2022/04/09 05:03:53;;;;;;;2.72;0.93;;;5.10;44.70;;;;;;4882258;29;20024;-85
2022/04/09 05:06:26;;;;;;;2.13;0.80;;;5.10;44.80;;;;;;4881059;29;20158;-86
2022/04/09 05:08:53;;;;;;;1.70;0.75;;;5.10;44.80;;;;;;4899153;29;20024;-86
2022/04/09 05:11:29;;;;;;;2.00;1.15;;;5.00;44.70;;;;;;4901241;29;20113;-85
2022/04/09 05:13:58;;;;;;;2.90;0.90;;;5.00;44.80;;;;;;4876913;29;20032;-85
2022/04/09 05:16:24;;;;;;;3.35;0.80;;;5.00;44.80;;;;;;4892026;29;20070;-89
2022/04/09 05:19:05;;;;;;;2.47;1.27;;;5.00;44.90;;;;;;4898972;29;20298;-88
2022/04/09 05:21:33;;;;;;;4.45;1.17;;;5.00;44.90;;;;;;4890266;29;20040;-87
2022/04/09 05:24:00;;;;;;;1.73;1.05;;;4.90;44.80;;;;;;4900315;29;20059;-85
2022/04/09 05:26:26;;;;;;;2.55;0.60;;;4.90;44.80;;;;;;4891443;29;20056;-89
2022/04/09 05:28:54;;;;;;;1.45;1.00;;;4.90;44.90;;;;;;4902934;29;20044;-87
2022/04/09 05:31:31;;;;;;;1.80;0.98;;;4.90;45.00;;;;;;4895905;29;20039;-87
2022/04/09 05:33:57;;;;;;;3.17;0.90;;;4.90;45.00;;;;;;4896787;29;20469;-89
2022/04/09 05:36:26;;;;;;;3.08;1.05;;;4.90;45.00;;;;;;4893522;29;20043;-87
2022/04/09 05:38:56;;;;;;;2.78;1.60;;;4.90;45.00;;;;;;4892897;29;20051;-87
2022/04/09 05:41:22;;;;;;;1.55;1.30;;;4.90;45.10;;;;;;4907285;29;20215;-81
2022/04/09 05:43:48;;;;;;;3.00;1.42;;;4.90;45.10;;;;;;4901084;29;20446;-83
2022/04/09 05:46:19;;;;;;;2.30;1.02;;;4.90;45.10;;;;;;4893018;29;20024;-89
2022/04/09 05:48:45;;;;;;;2.05;1.25;;;4.90;45.10;;;;;;4893663;29;21236;-82
2022/04/09 05:51:10;;;;;;;3.65;1.52;;;4.90;45.10;;;;;;4898820;29;20475;-83
2022/04/09 05:53:40;;;;;;;2.40;1.10;;;4.90;45.10;;;;;;4886740;29;20027;-82
2022/04/09 05:56:08;;;;;;;5.18;1.83;;;4.90;45.10;;;;;;4897027;29;20651;-80
2022/04/09 05:58:41;;;;;;;2.42;1.33;;;4.90;45.10;;;;;;4889963;29;20026;-79
2022/04/09 06:01:09;;;;;;;2.40;1.23;;;4.90;45.10;;;;;;4890054;29;20087;-80
2022/04/09 06:03:35;;;;;;;3.60;1.10;;;4.90;45.10;;;;;;4891203;29;20420;-81
2022/04/09 06:06:02;;;;;;;2.45;1.20;;;4.90;45.10;;;;;;4878823;29;20716;-80
2022/04/09 06:08:37;;;;;;;4.57;1.58;;;5.00;45.30;;;;;;4910711;29;20031;-81
2022/04/09 06:11:14;;;;;;;8.10;1.52;;;5.00;45.30;;;;;;4894303;29;20036;-82
2022/04/09 06:13:40;;;;;;;2.72;1.42;;;5.10;45.50;;;;;;4896628;29;20089;-82
2022/04/09 06:16:08;;;;;;;4.72;1.73;;;5.10;45.60;;;;;;4876797;29;20119;-81
2022/04/09 06:18:38;;;;;;;2.72;1.52;;;5.30;46.10;;;;;;4904896;29;20028;-83
2022/04/09 06:21:05;;;;;;;5.28;1.65;;;5.50;46.30;;;;;;4894252;29;20590;-84
2022/04/09 06:23:31;;;;;;;1.60;1.00;;;5.60;46.20;;;;;;4893778;29;20052;-80
2022/04/09 06:25:57;;;;;;;3.08;1.33;;;5.90;46.40;;;;;;4907988;29;20051;-83
2022/04/09 06:28:25;;;;;;;2.83;1.48;;;6.10;46.40;;;;;;4893779;29;20123;-83
2022/04/09 06:30:52;;;;;;;2.53;1.27;;;6.40;46.30;;;;;;4880119;29;20206;-82
2022/04/09 06:33:22;;;;;;;3.28;1.33;;;6.70;46.30;;;;;;4890597;29;20518;-80
2022/04/09 06:35:48;;;;;;;2.83;1.42;;;7.10;46.30;;;;;;4887529;29;20052;-81
2022/04/09 06:38:18;;;;;;;1.90;1.40;;;7.50;46.40;;;;;;4897410;29;20108;-80
2022/04/09 06:40:44;;;;;;;1.70;1.02;;;7.90;46.20;;;;;;4880297;29;20048;-80
2022/04/09 06:43:13;;;;;;;2.00;1.50;;;8.30;46.10;;;;;;4887222;29;20127;-81
2022/04/09 06:46:02;;;;;;;2.00;1.05;;;8.70;46.00;;;;;;4904865;29;20032;-81
2022/04/09 06:48:34;;;;;;;3.63;1.48;;;9.10;45.80;;;;;;4910892;29;20038;-79
2022/04/09 06:51:22;;;;;;;4.70;2.22;;;9.50;45.80;;;;;;4905272;29;20050;-85
2022/04/09 06:53:48;;;;;;;2.72;1.30;;;9.90;45.80;;;;;;4889762;29;20021;-80
2022/04/09 06:56:14;;;;;;;4.15;2.30;;;10.20;45.60;;;;;;4897960;29;20171;-80
2022/04/09 06:58:41;;;;;;;3.08;1.42;;;10.50;45.50;;;;;;4902251;29;20028;-91
2022/04/09 07:01:07;;;;;;;2.88;1.65;;;10.70;45.20;;;;;;4900605;29;20959;-90
2022/04/09 07:03:36;;;;;;;1.63;1.48;;;10.90;44.90;;;;;;4905266;29;20512;-88
2022/04/09 07:06:02;;;;;;;4.22;1.58;;;11.10;45.00;;;;;;4916938;29;20365;-83
2022/04/09 07:08:28;;;;;;;2.08;1.20;;;11.30;45.00;;;;;;4919769;29;20187;-83
2022/04/09 07:10:54;;;;;;;2.47;1.25;;;11.30;44.80;;;;;;4913112;29;20062;-84
2022/04/09 07:13:20;;;;;;;5.45;1.83;;;11.20;44.70;;;;;;4919384;29;20052;-82
2022/04/09 07:15:46;;;;;;;1.92;1.00;;;11.10;44.70;;;;;;4883319;29;20379;-82
2022/04/09 07:18:11;;;;;;;4.05;1.42;;;11.10;45.00;;;;;;4892734;29;20546;-88
2022/04/09 07:20:40;;;;;;;2.50;0.98;;;10.90;44.90;;;;;;4886823;29;20082;-84
2022/04/09 07:23:06;;;;;;;4.18;1.48;;;10.80;45.10;;;;;;4892486;29;20059;-89
2022/04/09 07:25:33;;;;;;;5.10;1.50;;;10.70;45.20;;;;;;4886501;29;20496;-82
2022/04/09 07:27:59;;;;;;;2.55;1.20;;;10.70;45.50;;;;;;4889804;29;20032;-81
2022/04/09 07:30:26;;;;;;;4.18;2.00;;;10.60;45.70;;;;;;4908845;29;20032;-83
2022/04/09 07:32:56;;;;;;;2.85;1.45;;;10.60;45.80;;;;;;4889282;29;20043;-88
2022/04/09 07:35:22;;;;;;;4.43;1.20;;;10.60;45.80;;;;;;4893169;29;20028;-83
2022/04/09 07:37:54;;;;;;;3.35;1.45;;;10.60;45.90;;;;;;4892429;29;20045;-82
2022/04/09 07:40:21;;;;;;;3.83;1.27;;;10.60;45.90;;;;;;4888015;29;20070;-83
2022/04/09 07:42:48;;;;;;;3.72;1.40;;;10.60;45.90;;;;;;4908250;29;20096;-86
2022/04/09 07:45:15;;;;;;;3.95;1.27;;;10.70;46.00;;;;;;4908028;29;20036;-85
2022/04/09 07:47:42;;;;;;;4.78;1.80;;;10.80;45.90;;;;;;4909602;29;20372;-85
2022/04/09 07:50:10;;;;;;;3.28;1.70;;;10.90;45.70;;;;;;4892511;29;20087;-83
2022/04/09 07:52:42;;;;;;;3.33;1.67;;;11.20;45.80;;;;;;4898329;29;20027;-86
2022/04/09 07:55:16;;;;;;;3.78;1.50;;;11.50;45.50;;;;;;4911713;29;20036;-84
2022/04/09 07:57:47;;;;;;;3.90;1.55;;;11.80;45.10;;;;;;4911353;29;20063;-84
2022/04/09 08:00:15;;;;;;;5.40;1.58;;;12.10;44.80;;;;;;4910248;29;20453;-85
2022/04/09 08:02:41;;;;;;;4.93;2.30;;;12.20;44.30;;;;;;4912615;29;20074;-85
2022/04/09 08:05:10;;;;;;;6.25;1.88;;;12.40;44.30;;;;;;4917656;29;20471;-84
2022/04/09 08:07:40;;;;;;;4.10;2.50;;;12.40;44.10;;;;;;4914735;29;20087;-85
2022/04/09 08:10:08;;;;;;;4.90;1.40;;;12.30;43.90;;;;;;4915888;29;20027;-84
2022/04/09 08:12:34;;;;;;;3.13;1.25;;;12.20;44.00;;;;;;4914329;29;20051;-84
2022/04/09 08:15:00;;;;;;;3.22;1.42;;;12.10;44.30;;;;;;4913163;29;20120;-85
2022/04/09 08:17:26;;;;;;;3.13;1.33;;;11.90;44.40;;;;;;4912538;29;20028;-86
2022/04/09 08:19:52;;;;;;;3.55;1.52;;;11.80;44.60;;;;;;4922809;29;20035;-82
2022/04/09 08:22:18;;;;;;;4.95;1.42;;;11.60;44.60;;;;;;4919584;29;20061;-84
2022/04/09 08:24:45;;;;;;;2.67;1.60;;;11.50;44.60;;;;;;4900107;29;20063;-88
2022/04/09 08:27:11;;;;;;;7.95;1.52;;;11.40;44.70;;;;;;4915175;29;20036;-89
2022/04/09 08:29:37;;;;;;;2.70;1.25;;;11.40;44.90;;;;;;4902409;29;20036;-89
2022/04/09 08:32:04;;;;;;;3.47;1.70;;;11.30;45.00;;;;;;4919372;29;20507;-88
2022/04/09 08:34:34;;;;;;;3.88;1.80;;;11.30;45.10;;;;;;4902482;29;20046;-88
2022/04/09 08:37:01;;;;;;;4.95;1.70;;;11.30;45.20;;;;;;4916948;29;20062;-88
2022/04/09 08:39:27;;;;;;;4.63;1.45;;;11.20;45.10;;;;;;4896232;29;20075;-86
2022/04/09 08:41:53;;;;;;;4.85;1.45;;;11.20;45.10;;;;;;4894082;29;20078;-86
2022/04/09 08:44:19;;;;;;;4.30;1.67;;;11.20;45.20;;;;;;4906284;29;20036;-85
2022/04/09 08:46:47;;;;;;;3.53;1.38;;;11.20;45.20;;;;;;4880271;29;20043;-86
2022/04/09 08:49:13;;;;;;;4.70;1.35;;;11.20;45.30;;;;;;4890766;29;20039;-86
2022/04/09 08:51:39;;;;;;;5.00;1.73;;;11.20;45.30;;;;;;4919781;29;20297;-87
2022/04/09 08:54:07;;;;;;;4.75;1.50;;;11.20;45.30;;;;;;4910846;29;20035;-86
2022/04/09 08:56:34;;;;;;;4.80;1.60;;;11.10;45.10;;;;;;4902219;29;20028;-84
2022/04/09 08:59:01;;;;;;;4.18;1.85;;;11.20;45.20;;;;;;4915384;29;20392;-85
2022/04/09 09:01:28;;;;;;;4.20;1.38;;;11.10;45.50;;;;;;4915294;29;20428;-85
2022/04/09 09:03:55;;;;;;;4.38;1.33;;;11.20;45.30;;;;;;4932340;29;20121;-87
2022/04/09 09:06:35;;;;;;;3.95;1.48;;;11.20;45.30;;;;;;4923432;29;20062;-86
2022/04/09 09:09:04;;;;;;;4.25;0.90;;;11.20;45.20;;;;;;4940161;29;20036;-86
2022/04/09 09:11:45;;;;;;;5.55;1.45;;;11.20;45.20;;;;;;4938798;29;20498;-84
2022/04/09 09:14:11;;;;;;;2.97;1.65;;;11.30;45.30;;;;;;4935364;29;20040;-86
2022/04/09 09:16:37;;;;;;;4.55;1.23;;;11.30;45.20;;;;;;4935766;29;20040;-84
2022/04/09 09:19:04;;;;;;;4.32;1.20;;;11.30;45.20;;;;;;4929977;29;20039;-84
2022/04/09 09:21:30;;;;;;;2.80;1.17;;;11.30;45.10;;;;;;4935353;29;20035;-86
2022/04/09 09:24:18;;;;;;;1.55;1.30;;;11.40;45.20;;;;;;4903519;29;20765;-84
2022/04/09 09:26:44;;;;;;;3.55;1.20;;;11.40;45.10;;;;;;4899160;29;20036;-83
2022/04/09 09:29:22;;;;;;;6.60;1.83;;;11.40;45.00;;;;;;4895725;29;20036;-80
2022/04/09 09:31:50;;;;;;;4.63;1.20;;;11.50;45.10;;;;;;4911001;29;20104;-87
2022/04/09 09:34:20;;;;;;;3.92;1.05;;;11.50;45.00;;;;;;4910548;29;20455;-86
2022/04/09 09:36:47;;;;;;;2.33;1.27;;;11.60;45.10;;;;;;4912440;29;20036;-86
2022/04/09 09:39:18;;;;;;;6.30;1.85;;;11.60;45.00;;;;;;4909298;29;20036;-84
2022/04/09 09:41:51;;;;;;;2.78;1.10;;;11.60;44.90;;;;;;4910629;29;20095;-82
2022/04/09 09:44:19;;;;;;;4.30;1.08;;;11.70;45.00;;;;;;4909221;29;20040;-85
2022/04/09 09:46:49;;;;;;;4.30;1.13;;;11.70;44.90;;;;;;4914799;29;20562;-85
2022/04/09 09:49:16;;;;;;;4.28;1.10;;;11.70;44.80;;;;;;4884622;29;20036;-86
2022/04/09 09:51:42;;;;;;;3.95;1.30;;;11.80;44.90;;;;;;4913249;29;20040;-86
2022/04/09 09:54:11;;;;;;;4.50;1.40;;;11.80;44.80;;;;;;4905848;29;20036;-85
2022/04/09 09:56:44;;;;;;;5.03;1.50;;;11.80;44.70;;;;;;4910060;29;20032;-84
2022/04/09 09:59:12;;;;;;;3.92;1.73;;;11.80;44.60;;;;;;4891959;29;20032;-86
2022/04/09 10:01:43;;;;;;;4.07;1.40;;;11.90;44.70;;;;;;4910708;29;20044;-86
2022/04/09 10:04:12;;;;;;;3.60;1.38;;;11.90;44.50;;;;;;4899451;29;20040;-84
2022/04/09 10:06:42;;;;;;;7.45;2.65;;;12.00;44.60;;;;;;4900717;29;20059;-85
2022/04/09 10:09:09;;;;;;;3.22;1.25;;;12.00;44.40;;;;;;4897050;29;20519;-80
2022/04/09 10:11:39;;;;;;;4.95;1.58;;;12.10;44.50;;;;;;4911439;29;20610;-88
2022/04/09 10:14:07;;;;;;;3.33;1.30;;;12.10;44.30;;;;;;4902893;29;20111;-86
2022/04/09 10:16:38;;;;;;;4.05;1.30;;;12.20;44.40;;;;;;4915149;29;20106;-87
2022/04/09 10:19:05;;;;;;;4.03;1.40;;;12.30;44.40;;;;;;4893605;29;20161;-86
2022/04/09 10:21:33;;;;;;;3.28;1.17;;;12.30;44.20;;;;;;4915986;29;20051;-86
2022/04/09 10:24:02;;;;;;;3.20;1.33;;;12.40;44.30;;;;;;4881025;29;20123;-87
2022/04/09 10:26:28;;;;;;;4.82;1.90;;;12.50;44.30;;;;;;4893237;29;20036;-87
2022/04/09 10:29:07;;;;;;;6.15;1.45;;;12.50;44.10;;;;;;4889735;29;20029;-86
2022/04/09 10:31:40;;;;;;;5.20;1.52;;;12.60;44.00;;;;;;4908466;29;20043;-84
2022/04/09 10:34:10;;;;;;;4.35;1.40;;;12.80;44.20;;;;;;4899659;29;20043;-84
2022/04/09 10:36:45;;;;;;;3.47;1.80;;;12.90;44.10;;;;;;4907671;29;20324;-83
2022/04/09 10:39:39;;;;;;;2.45;1.25;;;13.00;44.00;;;;;;4870164;29;20075;-87
2022/04/09 10:42:06;;;;;;;6.18;1.38;;;13.10;44.00;;;;;;4907786;29;20063;-84
2022/04/09 10:44:44;;;;;;;4.28;1.30;;;13.10;43.80;;;;;;4902623;29;20063;-85
2022/04/09 10:47:13;;;;;;;4.65;2.45;;;13.20;43.80;;;;;;4894901;29;20051;-90
2022/04/09 10:49:39;;;;;;;5.55;1.90;;;13.40;43.80;;;;;;4910587;29;20036;-90
2022/04/09 10:52:16;;;;;;;4.75;1.27;;;13.60;43.60;;;;;;4905861;29;20042;-93
2022/04/09 10:55:04;;;;;;;4.68;1.40;;;13.70;43.30;;;;;;4906764;29;20451;-82
2022/04/09 10:57:44;;;;;;;5.70;2.03;;;13.90;42.70;;;;;;4887360;29;20036;-88
2022/04/09 11:00:22;;;;;;;3.78;0.95;;;14.00;42.40;;;;;;4904124;29;20036;-80
2022/04/09 11:03:10;;;;;;;3.05;1.05;;;14.00;42.00;;;;;;4906999;29;20044;-80
2022/04/09 11:05:39;;;;;;;5.13;1.40;;;13.80;41.10;;;;;;4901901;29;20035;-80
2022/04/09 11:08:07;;;;;;;6.40;1.02;;;13.70;41.30;;;;;;4888629;29;20091;-81
2022/04/09 11:10:33;;;;;;;7.80;1.63;;;13.60;41.10;;;;;;4889253;29;20420;-86
2022/04/09 11:12:59;;;;;;;3.75;1.55;;;13.50;41.00;;;;;;4907685;29;20024;-81
2022/04/09 11:15:27;;;;;;;6.32;1.23;;;13.40;40.80;;;;;;4900911;29;20110;-83
2022/04/09 11:17:59;;;;;;;5.15;2.15;;;13.30;40.60;;;;;;4905228;29;20074;-82
2022/04/09 11:20:30;;;;;;;4.40;1.90;;;13.30;40.40;;;;;;4890244;29;20048;-81
2022/04/09 11:22:56;;;;;;;4.85;1.80;;;13.20;40.10;;;;;;4906899;29;20040;-81
2022/04/09 11:25:24;;;;;;;4.93;1.27;;;13.20;40.10;;;;;;4907689;29;20539;-81
2022/04/09 11:27:52;;;;;;;3.47;1.73;;;13.30;40.10;;;;;;4904025;29;20119;-80
2022/04/09 11:30:20;;;;;;;4.15;1.20;;;13.30;40.00;;;;;;4915623;29;20450;-81
2022/04/09 11:32:46;;;;;;;2.42;1.15;;;13.40;39.90;;;;;;4890185;29;20123;-83
2022/04/09 11:35:24;;;;;;;4.00;1.65;;;13.50;39.90;;;;;;5097975;27;20433;-78
2022/04/09 11:37:52;;;;;;;7.70;1.50;;;13.60;39.70;;;;;;5081214;28;20035;-78
2022/04/09 11:40:20;;;;;;;7.38;1.58;;;13.70;39.60;;;;;;5078690;28;20032;-76
2022/04/09 11:42:54;;;;;;;4.93;2.05;;;13.90;39.70;;;;;;5089489;28;20032;-76
2022/04/09 11:45:28;;;;;;;6.18;3.05;;;14.00;39.50;;;;;;5082109;28;20501;-76
2022/04/09 11:47:58;;;;;;;6.18;1.85;;;14.10;39.50;;;;;;5073355;28;20024;-77
2022/04/09 11:50:39;;;;;;;8.43;1.67;;;14.20;39.60;;;;;;5076610;28;20037;-76
2022/04/09 11:53:34;;;;;;;9.10;1.88;;;14.30;39.60;;;;;;5077501;28;20025;-77
2022/04/09 11:56:01;;;;;;;7.65;1.92;;;14.40;39.60;;;;;;5064240;28;20036;-77
2022/04/09 11:58:32;;;;;;;6.30;2.42;;;14.40;39.70;;;;;;5073646;28;20029;-76
2022/04/09 12:00:58;;;;;;;5.30;2.08;;;14.40;39.60;;;;;;5061222;28;20035;-76
2022/04/09 12:03:25;;;;;;;7.05;2.35;;;14.50;39.70;;;;;;5071715;28;20064;-76
2022/04/09 12:05:51;;;;;;;6.65;2.22;;;14.60;39.70;;;;;;5076656;28;20050;-77
2022/04/09 12:08:19;;;;;;;4.72;1.52;;;14.70;39.60;;;;;;5076571;28;20098;-77
2022/04/09 12:11:01;;;;;;;4.68;2.75;;;14.70;39.40;;;;;;5077470;28;20032;-75
2022/04/09 12:13:30;;;;;;;8.38;1.80;;;14.70;39.00;;;;;;5076578;28;20027;-79
2022/04/09 12:16:14;;;;;;;5.05;1.63;;;14.60;38.80;;;;;;5088919;28;20257;-76
2022/04/09 12:18:40;;;;;;;4.78;1.98;;;14.60;38.60;;;;;;5076221;28;20032;-78
2022/04/09 12:21:25;;;;;;;5.78;1.80;;;14.50;38.70;;;;;;5069056;28;20494;-77
2022/04/09 12:24:03;;;;;;;5.72;1.35;;;14.50;38.50;;;;;;5081645;28;20144;-77
2022/04/09 12:26:31;;;;;;;8.60;1.50;;;14.50;38.60;;;;;;5064965;28;20481;-77
2022/04/09 12:29:26;;;;;;;5.72;1.60;;;14.50;38.80;;;;;;5067456;28;20498;-78
2022/04/09 12:32:13;;;;;;;3.97;1.45;;;14.40;38.40;;;;;;5062766;28;20091;-76
2022/04/09 12:35:06;;;;;;;7.07;1.50;;;14.50;38.70;;;;;;5065178;28;20114;-77
2022/04/09 12:37:52;;;;;;;5.15;1.35;;;14.50;38.70;;;;;;5068989;28;20096;-77
2022/04/09 12:40:21;;;;;;;10.23;2.22;;;14.50;38.80;;;;;;5065906;28;20419;-78
2022/04/09 12:42:48;;;;;;;10.07;1.63;;;14.50;38.90;;;;;;5061991;28;20522;-78
2022/04/09 12:45:21;;;;;;;6.82;2.15;;;14.50;38.80;;;;;;5070153;28;20486;-77
2022/04/09 12:48:06;;;;;;;5.75;2.30;;;14.60;38.90;;;;;;5061588;28;20437;-76
2022/04/09 12:50:33;;;;;;;6.60;1.83;;;14.60;38.60;;;;;;5065893;28;20582;-75
2022/04/09 12:53:05;;;;;;;6.90;1.52;;;14.70;38.90;;;;;;5049532;28;20029;-76
2022/04/09 12:55:31;;;;;;;5.35;1.17;;;14.70;38.80;;;;;;5051444;28;20131;-76
2022/04/09 12:58:00;;;;;;;4.85;2.25;;;14.70;38.90;;;;;;5048655;28;20334;-78
2022/04/09 13:00:32;;;;;;;4.03;1.20;;;14.80;38.80;;;;;;5060964;28;20035;-77
2022/04/09 13:03:00;;;;;;;5.07;1.58;;;14.80;38.70;;;;;;5052643;28;20025;-77